DAL1464 KSLC-KGPI
Flight info
| Callsign | DAL1464 |
|---|---|
| Flight time | 1h 16m |
| Altitude | 38000 |
| Route | RUGGD3 HOLTR FCA |
| Aircraft | A320/M-SDE3FGHIRWY/LB1 |
Departure
| Time | 2026-04-22 21:37 |
|---|---|
| Airport | Salt Lake City International Airport (KSLC) |
Arrival
| Time | 2026-04-22 22:53 |
|---|---|
| Airport | Glacier Park International Airport (KGPI) |
| Time | Latitude | Longitude | Altitude | Speed | Heading |
|---|---|---|---|---|---|
| 2026-04-22 21:04 | 40.78556 | -111.97907 | 4231 ft | 0 kts | 355° |
| 2026-04-22 21:27 | 40.78555 | -111.97906 | 4231 ft | 1 kts | 355° |
| 2026-04-22 21:27 | 40.78538 | -111.97905 | 4231 ft | 3 kts | 2° |
| 2026-04-22 21:28 | 40.78518 | -111.97908 | 4231 ft | 3 kts | 19° |
| 2026-04-22 21:28 | 40.78502 | -111.97919 | 4231 ft | 3 kts | 54° |
| 2026-04-22 21:28 | 40.78496 | -111.97933 | 4231 ft | 1 kts | 85° |
| 2026-04-22 21:31 | 40.78497 | -111.97925 | 4231 ft | 5 kts | 85° |
| 2026-04-22 21:31 | 40.78503 | -111.97827 | 4231 ft | 14 kts | 85° |
| 2026-04-22 21:31 | 40.78510 | -111.97697 | 4231 ft | 15 kts | 94° |
| 2026-04-22 21:32 | 40.78437 | -111.97646 | 4231 ft | 12 kts | 174° |
| 2026-04-22 21:32 | 40.78359 | -111.97636 | 4230 ft | 11 kts | 175° |
| 2026-04-22 21:32 | 40.78246 | -111.97624 | 4231 ft | 20 kts | 175° |
| 2026-04-22 21:32 | 40.78115 | -111.97607 | 4230 ft | 18 kts | 175° |
| 2026-04-22 21:33 | 40.77998 | -111.97594 | 4272 ft | 16 kts | 175° |
| 2026-04-22 21:33 | 40.77898 | -111.97553 | 4272 ft | 16 kts | 151° |
| 2026-04-22 21:33 | 40.77799 | -111.97522 | 4272 ft | 16 kts | 175° |
| 2026-04-22 21:33 | 40.77680 | -111.97508 | 4272 ft | 17 kts | 175° |
| 2026-04-22 21:34 | 40.77573 | -111.97495 | 4273 ft | 14 kts | 174° |
| 2026-04-22 21:34 | 40.77479 | -111.97481 | 4272 ft | 12 kts | 165° |
| 2026-04-22 21:34 | 40.77472 | -111.97477 | 4273 ft | 0 kts | 157° |
| 2026-04-22 21:35 | 40.77466 | -111.97474 | 4273 ft | 2 kts | 157° |
| 2026-04-22 21:35 | 40.77449 | -111.97457 | 4273 ft | 7 kts | 129° |
| 2026-04-22 21:36 | 40.77478 | -111.97340 | 4272 ft | 16 kts | 48° |
| 2026-04-22 21:36 | 40.77646 | -111.97336 | 4273 ft | 48 kts | 354° |
| 2026-04-22 21:36 | 40.78207 | -111.97401 | 4230 ft | 111 kts | 355° |
| 2026-04-22 21:36 | 40.79155 | -111.97509 | 4239 ft | 160 kts | 358° |
| 2026-04-22 21:37 | 40.80244 | -111.97649 | 4972 ft | 155 kts | 352° |
| 2026-04-22 21:37 | 40.81316 | -111.97813 | 5622 ft | 158 kts | 344° |
| 2026-04-22 21:37 | 40.82444 | -111.98002 | 6130 ft | 169 kts | 349° |
| 2026-04-22 21:37 | 40.83672 | -111.98211 | 6449 ft | 191 kts | 350° |
| 2026-04-22 21:38 | 40.85068 | -111.98447 | 6733 ft | 215 kts | 351° |
| 2026-04-22 21:38 | 40.86639 | -111.98709 | 7145 ft | 240 kts | 349° |
| 2026-04-22 21:38 | 40.88392 | -111.99000 | 7777 ft | 267 kts | 346° |
| 2026-04-22 21:38 | 40.90287 | -111.99314 | 8769 ft | 281 kts | 347° |
| 2026-04-22 21:39 | 40.92256 | -111.99633 | 9944 ft | 289 kts | 346° |
| 2026-04-22 21:39 | 40.94325 | -111.99971 | 10678 ft | 311 kts | 347° |
| 2026-04-22 21:39 | 40.96539 | -112.00337 | 11415 ft | 330 kts | 348° |
| 2026-04-22 21:39 | 40.98864 | -112.00707 | 12370 ft | 342 kts | 351° |
| 2026-04-22 21:40 | 41.01291 | -112.00570 | 13369 ft | 359 kts | 7° |
| 2026-04-22 21:40 | 41.03692 | -111.99455 | 14355 ft | 372 kts | 26° |
| 2026-04-22 21:40 | 41.05788 | -111.97393 | 15294 ft | 382 kts | 45° |
| 2026-04-22 21:40 | 41.07344 | -111.94588 | 15985 ft | 387 kts | 63° |
| 2026-04-22 21:41 | 41.08493 | -111.91340 | 16688 ft | 389 kts | 65° |
| 2026-04-22 21:41 | 41.09628 | -111.88059 | 17353 ft | 393 kts | 65° |
| 2026-04-22 21:41 | 41.10780 | -111.84764 | 18118 ft | 395 kts | 63° |
| 2026-04-22 21:41 | 41.12252 | -111.81677 | 18677 ft | 396 kts | 50° |
| 2026-04-22 21:42 | 41.14173 | -111.79055 | 19202 ft | 398 kts | 37° |
| 2026-04-22 21:42 | 41.16435 | -111.77022 | 19728 ft | 398 kts | 25° |
| 2026-04-22 21:42 | 41.18987 | -111.75615 | 20295 ft | 396 kts | 11° |
| 2026-04-22 21:42 | 41.21672 | -111.74846 | 20855 ft | 395 kts | 6° |
| 2026-04-22 21:43 | 41.24396 | -111.74202 | 21425 ft | 398 kts | 7° |
| 2026-04-22 21:43 | 41.27135 | -111.73559 | 22005 ft | 401 kts | 6° |
| 2026-04-22 21:43 | 41.29890 | -111.72915 | 22608 ft | 403 kts | 6° |
| 2026-04-22 21:43 | 41.32658 | -111.72259 | 23174 ft | 406 kts | 6° |
| 2026-04-22 21:44 | 41.35456 | -111.71591 | 23659 ft | 409 kts | 8° |
| 2026-04-22 21:44 | 41.38268 | -111.70914 | 24050 ft | 414 kts | 7° |
| 2026-04-22 21:44 | 41.41076 | -111.69924 | 24448 ft | 420 kts | 12° |
| 2026-04-22 21:44 | 41.43888 | -111.68816 | 24813 ft | 423 kts | 12° |
| 2026-04-22 21:45 | 41.46729 | -111.67705 | 25164 ft | 428 kts | 13° |
| 2026-04-22 21:45 | 41.48626 | -111.66966 | 25422 ft | 430 kts | 12° |
| 2026-04-22 21:45 | 41.51511 | -111.65839 | 25795 ft | 434 kts | 12° |
| 2026-04-22 21:45 | 41.54419 | -111.64700 | 26185 ft | 437 kts | 12° |
| 2026-04-22 21:46 | 41.57351 | -111.63549 | 26584 ft | 440 kts | 12° |
| 2026-04-22 21:46 | 41.61261 | -111.62011 | 27072 ft | 444 kts | 12° |
| 2026-04-22 21:46 | 41.63269 | -111.61220 | 27321 ft | 446 kts | 12° |
| 2026-04-22 21:46 | 41.66263 | -111.60039 | 27679 ft | 450 kts | 12° |
| 2026-04-22 21:47 | 41.69278 | -111.58849 | 28025 ft | 454 kts | 12° |
| 2026-04-22 21:47 | 41.72321 | -111.57647 | 28355 ft | 458 kts | 12° |
| 2026-04-22 21:47 | 41.75392 | -111.56432 | 28666 ft | 461 kts | 11° |
| 2026-04-22 21:47 | 41.78474 | -111.55210 | 29007 ft | 463 kts | 12° |
| 2026-04-22 21:48 | 41.81567 | -111.54303 | 29365 ft | 461 kts | 5° |
| 2026-04-22 21:48 | 41.84738 | -111.53594 | 29686 ft | 464 kts | 5° |
| 2026-04-22 21:48 | 41.87940 | -111.52882 | 29991 ft | 466 kts | 4° |
| 2026-04-22 21:48 | 41.91150 | -111.52165 | 30248 ft | 469 kts | 4° |
| 2026-04-22 21:49 | 41.94376 | -111.51440 | 30489 ft | 472 kts | 4° |
| 2026-04-22 21:49 | 41.97623 | -111.50709 | 30749 ft | 474 kts | 5° |
| 2026-04-22 21:49 | 42.00879 | -111.49974 | 31010 ft | 475 kts | 5° |
| 2026-04-22 21:49 | 42.04143 | -111.49235 | 31250 ft | 476 kts | 5° |
| 2026-04-22 21:50 | 42.07421 | -111.48491 | 31511 ft | 477 kts | 5° |
| 2026-04-22 21:50 | 42.10701 | -111.47743 | 31826 ft | 477 kts | 5° |
| 2026-04-22 21:50 | 42.13971 | -111.46997 | 32132 ft | 477 kts | 5° |
| 2026-04-22 21:50 | 42.17252 | -111.46247 | 32446 ft | 477 kts | 5° |
| 2026-04-22 21:51 | 42.20519 | -111.45498 | 32795 ft | 476 kts | 5° |
| 2026-04-22 21:51 | 42.23787 | -111.44751 | 33124 ft | 476 kts | 5° |
| 2026-04-22 21:51 | 42.27058 | -111.44203 | 33429 ft | 471 kts | 357° |
| 2026-04-22 21:52 | 42.33471 | -111.45014 | 34025 ft | 458 kts | 340° |
| 2026-04-22 21:52 | 42.36496 | -111.46273 | 34269 ft | 454 kts | 335° |
| 2026-04-22 21:52 | 42.39492 | -111.47644 | 34519 ft | 455 kts | 336° |
| 2026-04-22 21:52 | 42.42453 | -111.48995 | 34743 ft | 455 kts | 336° |
| 2026-04-22 21:53 | 42.45459 | -111.50362 | 34982 ft | 455 kts | 336° |
| 2026-04-22 21:53 | 42.48466 | -111.51726 | 35196 ft | 456 kts | 336° |
| 2026-04-22 21:53 | 42.51476 | -111.53092 | 35420 ft | 456 kts | 336° |
| 2026-04-22 21:53 | 42.54484 | -111.54460 | 35656 ft | 456 kts | 336° |
| 2026-04-22 21:54 | 42.57493 | -111.55835 | 35847 ft | 457 kts | 337° |
| 2026-04-22 21:54 | 42.60508 | -111.57213 | 36045 ft | 457 kts | 337° |
| 2026-04-22 21:54 | 42.63526 | -111.58594 | 36236 ft | 458 kts | 337° |
| 2026-04-22 21:54 | 42.66543 | -111.59975 | 36425 ft | 458 kts | 337° |
| 2026-04-22 21:55 | 42.69564 | -111.61359 | 36604 ft | 458 kts | 337° |
| 2026-04-22 21:55 | 42.72584 | -111.62748 | 36788 ft | 458 kts | 337° |
| 2026-04-22 21:55 | 42.75604 | -111.64137 | 36958 ft | 459 kts | 337° |
| 2026-04-22 21:55 | 42.78628 | -111.65529 | 37128 ft | 459 kts | 337° |
| 2026-04-22 21:56 | 42.81654 | -111.66922 | 37296 ft | 459 kts | 337° |
| 2026-04-22 21:56 | 42.84683 | -111.68312 | 37457 ft | 459 kts | 337° |
| 2026-04-22 21:56 | 42.87706 | -111.69699 | 37614 ft | 459 kts | 337° |
| 2026-04-22 21:56 | 42.90730 | -111.71095 | 37791 ft | 459 kts | 337° |
| 2026-04-22 21:57 | 42.93757 | -111.72502 | 37906 ft | 459 kts | 338° |
| 2026-04-22 21:57 | 42.99802 | -111.75312 | 37922 ft | 458 kts | 338° |
| 2026-04-22 21:58 | 43.05841 | -111.78118 | 37917 ft | 458 kts | 337° |
| 2026-04-22 21:58 | 43.11872 | -111.80922 | 37908 ft | 458 kts | 336° |
| 2026-04-22 21:59 | 43.17863 | -111.83716 | 37894 ft | 458 kts | 336° |
| 2026-04-22 21:59 | 43.23899 | -111.86533 | 37899 ft | 458 kts | 336° |
| 2026-04-22 22:00 | 43.29937 | -111.89360 | 37901 ft | 458 kts | 337° |
| 2026-04-22 22:00 | 43.35981 | -111.92192 | 37899 ft | 458 kts | 337° |
| 2026-04-22 22:01 | 43.41971 | -111.95006 | 37894 ft | 458 kts | 336° |
| 2026-04-22 22:01 | 43.48008 | -111.97837 | 37907 ft | 458 kts | 336° |
| 2026-04-22 22:02 | 43.54036 | -112.00677 | 37905 ft | 457 kts | 336° |
| 2026-04-22 22:02 | 43.60050 | -112.03528 | 37859 ft | 457 kts | 335° |
| 2026-04-22 22:03 | 43.66066 | -112.06389 | 37854 ft | 457 kts | 337° |
| 2026-04-22 22:03 | 43.72077 | -112.09248 | 37839 ft | 457 kts | 336° |
| 2026-04-22 22:04 | 43.78103 | -112.12118 | 37835 ft | 457 kts | 336° |
| 2026-04-22 22:04 | 43.84080 | -112.14972 | 37825 ft | 457 kts | 337° |
| 2026-04-22 22:05 | 43.90095 | -112.17844 | 37805 ft | 457 kts | 335° |
| 2026-04-22 22:05 | 43.96110 | -112.20723 | 37801 ft | 457 kts | 338° |
| 2026-04-22 22:06 | 44.02130 | -112.23613 | 37794 ft | 457 kts | 339° |
| 2026-04-22 22:06 | 44.08144 | -112.26501 | 37788 ft | 457 kts | 338° |
| 2026-04-22 22:07 | 44.14153 | -112.29400 | 37780 ft | 457 kts | 338° |
| 2026-04-22 22:07 | 44.20113 | -112.32285 | 37787 ft | 457 kts | 338° |
| 2026-04-22 22:08 | 44.26124 | -112.35193 | 37787 ft | 457 kts | 338° |
| 2026-04-22 22:08 | 44.32131 | -112.38105 | 37782 ft | 457 kts | 339° |
| 2026-04-22 22:09 | 44.38144 | -112.41025 | 37784 ft | 457 kts | 338° |
| 2026-04-22 22:09 | 44.44160 | -112.43952 | 37790 ft | 457 kts | 338° |
| 2026-04-22 22:10 | 44.50173 | -112.46902 | 37788 ft | 457 kts | 336° |
| 2026-04-22 22:10 | 44.56147 | -112.49834 | 37789 ft | 457 kts | 338° |
| 2026-04-22 22:11 | 44.62160 | -112.52787 | 37792 ft | 458 kts | 338° |
| 2026-04-22 22:11 | 44.68185 | -112.55742 | 37787 ft | 458 kts | 338° |
| 2026-04-22 22:12 | 44.74206 | -112.58698 | 37787 ft | 458 kts | 338° |
| 2026-04-22 22:12 | 44.80227 | -112.61675 | 37787 ft | 459 kts | 336° |
| 2026-04-22 22:13 | 44.86246 | -112.64663 | 37777 ft | 458 kts | 338° |
| 2026-04-22 22:13 | 44.92270 | -112.67650 | 37768 ft | 458 kts | 338° |
| 2026-04-22 22:14 | 44.98298 | -112.70637 | 37753 ft | 459 kts | 337° |
| 2026-04-22 22:14 | 45.04331 | -112.73635 | 37741 ft | 460 kts | 337° |
| 2026-04-22 22:15 | 45.10339 | -112.76632 | 37744 ft | 460 kts | 336° |
| 2026-04-22 22:15 | 45.16376 | -112.79665 | 37747 ft | 460 kts | 337° |
| 2026-04-22 22:16 | 45.22411 | -112.82702 | 37748 ft | 459 kts | 336° |
| 2026-04-22 22:16 | 45.28397 | -112.85726 | 37741 ft | 459 kts | 337° |
| 2026-04-22 22:17 | 45.34412 | -112.88751 | 37741 ft | 459 kts | 337° |
| 2026-04-22 22:17 | 45.40443 | -112.91773 | 37725 ft | 459 kts | 338° |
| 2026-04-22 22:18 | 45.46461 | -112.94810 | 37729 ft | 459 kts | 338° |
| 2026-04-22 22:18 | 45.52472 | -112.97873 | 37747 ft | 458 kts | 338° |
| 2026-04-22 22:19 | 45.58480 | -113.00933 | 37765 ft | 458 kts | 339° |
| 2026-04-22 22:19 | 45.64485 | -113.03987 | 37769 ft | 458 kts | 339° |
| 2026-04-22 22:20 | 45.70485 | -113.07048 | 37791 ft | 458 kts | 338° |
| 2026-04-22 22:20 | 45.76483 | -113.10130 | 37792 ft | 458 kts | 338° |
| 2026-04-22 22:21 | 45.82478 | -113.13219 | 37794 ft | 458 kts | 338° |
| 2026-04-22 22:21 | 45.88487 | -113.16313 | 37803 ft | 458 kts | 339° |
| 2026-04-22 22:22 | 45.94489 | -113.19402 | 37790 ft | 457 kts | 338° |
| 2026-04-22 22:22 | 46.00444 | -113.22464 | 37797 ft | 457 kts | 338° |
| 2026-04-22 22:23 | 46.06425 | -113.25560 | 37811 ft | 457 kts | 339° |
| 2026-04-22 22:23 | 46.12400 | -113.28658 | 37817 ft | 456 kts | 339° |
| 2026-04-22 22:24 | 46.18375 | -113.31769 | 37797 ft | 456 kts | 339° |
| 2026-04-22 22:24 | 46.20351 | -113.32803 | 37797 ft | 456 kts | 338° |
| 2026-04-22 22:25 | 46.33431 | -113.39672 | 37795 ft | 454 kts | 339° |
| 2026-04-22 22:26 | 46.39340 | -113.42755 | 37790 ft | 454 kts | 339° |
| 2026-04-22 22:26 | 46.45287 | -113.45865 | 37776 ft | 454 kts | 338° |
| 2026-04-22 22:27 | 46.51230 | -113.48995 | 37772 ft | 454 kts | 339° |
| 2026-04-22 22:27 | 46.57174 | -113.52138 | 37782 ft | 455 kts | 339° |
| 2026-04-22 22:28 | 46.63119 | -113.55295 | 37763 ft | 455 kts | 338° |
| 2026-04-22 22:28 | 46.69091 | -113.58463 | 37755 ft | 457 kts | 338° |
| 2026-04-22 22:29 | 46.75078 | -113.61640 | 37752 ft | 459 kts | 338° |
| 2026-04-22 22:29 | 46.78083 | -113.63241 | 37618 ft | 460 kts | 339° |
| 2026-04-22 22:29 | 46.81092 | -113.64848 | 37341 ft | 460 kts | 339° |
| 2026-04-22 22:29 | 46.84059 | -113.66435 | 37008 ft | 459 kts | 339° |
| 2026-04-22 22:30 | 46.87048 | -113.68036 | 36454 ft | 456 kts | 339° |
| 2026-04-22 22:30 | 46.90023 | -113.69631 | 35910 ft | 454 kts | 340° |
| 2026-04-22 22:30 | 46.92982 | -113.71216 | 35362 ft | 452 kts | 340° |
| 2026-04-22 22:30 | 46.95925 | -113.72793 | 34825 ft | 450 kts | 341° |
| 2026-04-22 22:31 | 46.98859 | -113.74367 | 34282 ft | 448 kts | 341° |
| 2026-04-22 22:31 | 47.01778 | -113.75936 | 33724 ft | 446 kts | 342° |
| 2026-04-22 22:31 | 47.04689 | -113.77510 | 33144 ft | 444 kts | 341° |
| 2026-04-22 22:31 | 47.07569 | -113.79070 | 32615 ft | 439 kts | 342° |
| 2026-04-22 22:32 | 47.10426 | -113.80616 | 32085 ft | 436 kts | 341° |
| 2026-04-22 22:32 | 47.12303 | -113.81629 | 31731 ft | 433 kts | 344° |
| 2026-04-22 22:32 | 47.16072 | -113.83666 | 31044 ft | 429 kts | 343° |
| 2026-04-22 22:32 | 47.18838 | -113.85166 | 30548 ft | 417 kts | 342° |
| 2026-04-22 22:33 | 47.21510 | -113.86617 | 30061 ft | 402 kts | 342° |
| 2026-04-22 22:33 | 47.24083 | -113.88015 | 29596 ft | 387 kts | 342° |
| 2026-04-22 22:33 | 47.25734 | -113.88913 | 29294 ft | 377 kts | 342° |
| 2026-04-22 22:33 | 47.28917 | -113.90651 | 28752 ft | 358 kts | 342° |
| 2026-04-22 22:34 | 47.31228 | -113.91912 | 28370 ft | 354 kts | 342° |
| 2026-04-22 22:34 | 47.33538 | -113.93163 | 27977 ft | 353 kts | 342° |
| 2026-04-22 22:34 | 47.35845 | -113.94408 | 27588 ft | 353 kts | 342° |
| 2026-04-22 22:34 | 47.37404 | -113.95251 | 27311 ft | 352 kts | 342° |
| 2026-04-22 22:35 | 47.39691 | -113.96494 | 26919 ft | 349 kts | 342° |
| 2026-04-22 22:35 | 47.41957 | -113.97728 | 26506 ft | 346 kts | 343° |
| 2026-04-22 22:35 | 47.44202 | -113.98956 | 26109 ft | 342 kts | 342° |
| 2026-04-22 22:35 | 47.46401 | -114.00167 | 25703 ft | 343 kts | 342° |
| 2026-04-22 22:36 | 47.48645 | -114.01403 | 25287 ft | 344 kts | 344° |
| 2026-04-22 22:36 | 47.50890 | -114.02636 | 24857 ft | 344 kts | 342° |
| 2026-04-22 22:36 | 47.53129 | -114.03867 | 24426 ft | 343 kts | 343° |
| 2026-04-22 22:36 | 47.55374 | -114.05099 | 23995 ft | 343 kts | 342° |
| 2026-04-22 22:37 | 47.57616 | -114.06333 | 23546 ft | 344 kts | 342° |
| 2026-04-22 22:37 | 47.59867 | -114.07573 | 23056 ft | 346 kts | 342° |
| 2026-04-22 22:37 | 47.62124 | -114.08819 | 22594 ft | 344 kts | 341° |
| 2026-04-22 22:37 | 47.64361 | -114.10057 | 22160 ft | 342 kts | 341° |
| 2026-04-22 22:38 | 47.66579 | -114.11286 | 21729 ft | 340 kts | 340° |
| 2026-04-22 22:38 | 47.68792 | -114.12512 | 21302 ft | 338 kts | 341° |
| 2026-04-22 22:38 | 47.71000 | -114.13734 | 20882 ft | 337 kts | 340° |
| 2026-04-22 22:38 | 47.73155 | -114.14945 | 20499 ft | 335 kts | 340° |
| 2026-04-22 22:39 | 47.75348 | -114.16222 | 20090 ft | 333 kts | 339° |
| 2026-04-22 22:39 | 47.77465 | -114.17483 | 19711 ft | 332 kts | 339° |
| 2026-04-22 22:39 | 47.79601 | -114.18770 | 19318 ft | 331 kts | 339° |
| 2026-04-22 22:39 | 47.81736 | -114.20053 | 18911 ft | 330 kts | 339° |
| 2026-04-22 22:40 | 47.83863 | -114.21329 | 18531 ft | 329 kts | 338° |
| 2026-04-22 22:40 | 47.85983 | -114.22598 | 18143 ft | 328 kts | 338° |
| 2026-04-22 22:40 | 47.88087 | -114.23854 | 17959 ft | 321 kts | 338° |
| 2026-04-22 22:40 | 47.90146 | -114.25079 | 17646 ft | 317 kts | 338° |
| 2026-04-22 22:41 | 47.92193 | -114.26295 | 17285 ft | 315 kts | 338° |
| 2026-04-22 22:41 | 47.94200 | -114.27489 | 16933 ft | 314 kts | 338° |
| 2026-04-22 22:41 | 47.96223 | -114.28697 | 16577 ft | 313 kts | 338° |
| 2026-04-22 22:41 | 47.98241 | -114.29905 | 16208 ft | 312 kts | 338° |
| 2026-04-22 22:42 | 48.00248 | -114.31110 | 15871 ft | 310 kts | 338° |
| 2026-04-22 22:42 | 48.02251 | -114.32309 | 15516 ft | 310 kts | 338° |
| 2026-04-22 22:42 | 48.04250 | -114.33507 | 15179 ft | 309 kts | 338° |
| 2026-04-22 22:42 | 48.06249 | -114.34702 | 14827 ft | 309 kts | 338° |
| 2026-04-22 22:43 | 48.08243 | -114.35896 | 14477 ft | 309 kts | 338° |
| 2026-04-22 22:43 | 48.10240 | -114.37093 | 14133 ft | 309 kts | 338° |
| 2026-04-22 22:43 | 48.12236 | -114.38290 | 13776 ft | 309 kts | 338° |
| 2026-04-22 22:43 | 48.14231 | -114.39492 | 13413 ft | 309 kts | 338° |
| 2026-04-22 22:44 | 48.16222 | -114.40694 | 13040 ft | 309 kts | 338° |
| 2026-04-22 22:44 | 48.18224 | -114.41900 | 12675 ft | 309 kts | 338° |
| 2026-04-22 22:44 | 48.20217 | -114.43103 | 12319 ft | 308 kts | 338° |
| 2026-04-22 22:44 | 48.22201 | -114.44304 | 11956 ft | 307 kts | 338° |
| 2026-04-22 22:45 | 48.24164 | -114.45492 | 11760 ft | 300 kts | 338° |
| 2026-04-22 22:45 | 48.26086 | -114.46658 | 11420 ft | 295 kts | 338° |
| 2026-04-22 22:45 | 48.27954 | -114.47793 | 10893 ft | 290 kts | 339° |
| 2026-04-22 22:45 | 48.29780 | -114.48905 | 10535 ft | 276 kts | 339° |
| 2026-04-22 22:46 | 48.31522 | -114.49964 | 10205 ft | 263 kts | 340° |
| 2026-04-22 22:46 | 48.33189 | -114.50966 | 9881 ft | 252 kts | 342° |
| 2026-04-22 22:46 | 48.34901 | -114.51442 | 9986 ft | 255 kts | 0° |
| 2026-04-22 22:46 | 48.36639 | -114.51027 | 9968 ft | 254 kts | 18° |
| 2026-04-22 22:47 | 48.38203 | -114.49750 | 9555 ft | 260 kts | 38° |
| 2026-04-22 22:47 | 48.39423 | -114.47718 | 9117 ft | 263 kts | 49° |
| 2026-04-22 22:47 | 48.40554 | -114.45546 | 8716 ft | 261 kts | 47° |
| 2026-04-22 22:47 | 48.41562 | -114.43388 | 8351 ft | 251 kts | 59° |
| 2026-04-22 22:48 | 48.42234 | -114.41008 | 8033 ft | 241 kts | 66° |
| 2026-04-22 22:48 | 48.42845 | -114.38717 | 7705 ft | 231 kts | 66° |
| 2026-04-22 22:48 | 48.43437 | -114.36524 | 7420 ft | 221 kts | 65° |
| 2026-04-22 22:48 | 48.43983 | -114.34415 | 7123 ft | 213 kts | 70° |
| 2026-04-22 22:49 | 48.44312 | -114.32254 | 6840 ft | 212 kts | 81° |
| 2026-04-22 22:49 | 48.44389 | -114.30039 | 6561 ft | 213 kts | 90° |
| 2026-04-22 22:49 | 48.44210 | -114.27833 | 6271 ft | 213 kts | 100° |
| 2026-04-22 22:49 | 48.43776 | -114.25691 | 6025 ft | 215 kts | 110° |
| 2026-04-22 22:50 | 48.43109 | -114.23685 | 5669 ft | 212 kts | 120° |
| 2026-04-22 22:50 | 48.42371 | -114.21811 | 5387 ft | 205 kts | 120° |
| 2026-04-22 22:50 | 48.41490 | -114.20183 | 5100 ft | 196 kts | 140° |
| 2026-04-22 22:50 | 48.40366 | -114.19158 | 4847 ft | 184 kts | 159° |
| 2026-04-22 22:51 | 48.39159 | -114.18741 | 4608 ft | 172 kts | 174° |
| 2026-04-22 22:51 | 48.38010 | -114.18865 | 4375 ft | 160 kts | 188° |
| 2026-04-22 22:51 | 48.37005 | -114.19404 | 4195 ft | 148 kts | 201° |
| 2026-04-22 22:51 | 48.36159 | -114.20225 | 4019 ft | 143 kts | 208° |
| 2026-04-22 22:52 | 48.35356 | -114.21065 | 3842 ft | 141 kts | 209° |
| 2026-04-22 22:52 | 48.34556 | -114.21897 | 3657 ft | 138 kts | 210° |
| 2026-04-22 22:52 | 48.33770 | -114.22717 | 3472 ft | 138 kts | 209° |
| 2026-04-22 22:52 | 48.32979 | -114.23542 | 3269 ft | 136 kts | 206° |
| 2026-04-22 22:53 | 48.32206 | -114.24343 | 3097 ft | 134 kts | 206° |
| 2026-04-22 22:53 | 48.31468 | -114.25119 | 2980 ft | 122 kts | 205° |
| 2026-04-22 22:53 | 48.30984 | -114.25614 | 2974 ft | 41 kts | 214° |
| 2026-04-22 22:53 | 48.30782 | -114.25824 | 2975 ft | 31 kts | 215° |
| 2026-04-22 22:54 | 48.30661 | -114.25911 | 2980 ft | 13 kts | 165° |
| 2026-04-22 22:54 | 48.30618 | -114.25830 | 2978 ft | 10 kts | 102° |
| 2026-04-22 22:54 | 48.30648 | -114.25757 | 2978 ft | 7 kts | 35° |
| 2026-04-22 22:54 | 48.30691 | -114.25712 | 2978 ft | 8 kts | 34° |
| 2026-04-22 22:55 | 48.30738 | -114.25663 | 2978 ft | 11 kts | 35° |
| 2026-04-22 22:55 | 48.30783 | -114.25615 | 2978 ft | 5 kts | 35° |
| 2026-04-22 22:55 | 48.30820 | -114.25543 | 2978 ft | 7 kts | 95° |
| 2026-04-22 22:56 | 48.30799 | -114.25492 | 2978 ft | 5 kts | 125° |
| 2026-04-22 22:56 | 48.30777 | -114.25475 | 2978 ft | 3 kts | 167° |
| 2026-04-22 22:56 | 48.30762 | -114.25466 | 2978 ft | 3 kts | 150° |
| 2026-04-22 22:56 | 48.30754 | -114.25448 | 2978 ft | 2 kts | 116° |
| 2026-04-22 22:57 | 48.30749 | -114.25421 | 2978 ft | 2 kts | 107° |
| 2026-04-22 22:57 | 48.30745 | -114.25401 | 2978 ft | 2 kts | 106° |
| 2026-04-22 22:57 | 48.30743 | -114.25390 | 2978 ft | 1 kts | 105° |
| 2026-04-22 22:57 | 48.30742 | -114.25384 | 2978 ft | 0 kts | 104° |
| 2026-04-22 22:58 | 48.30741 | -114.25382 | 2978 ft | 0 kts | 104° |